Coal City, Illinois
Current Conditions -  °F | °C
As of 5:55 AM on Sunday 21 Dec 2014 (Local Time) from KC09 Reporting Station
Overcast Overcast  
Wind Chill: 26°   Ceiling: 3700
Heat Index: 32°   Visibility: 7mi
Dew Point: 31°   Wind: 7mph
Humidity: 95%   Direction: 150°SSE
Pressure: 30.2"   Gusts: NA
Location:  41.29°N, 88.29°W
Report Text: KC09 211155Z AUTO 15006KT 7SM OVC037 00/M01 A3020 RMK AO2 T00001007 10000 20000
Loading
Personal Weather Stations






























Interactive Weather Map New forecast layout! Learn more

10-Day Weather Forecast

Advertisements
Track Severe Weather on mobile